Artesian, South Dakota
Current Conditions -  °F | °C
As of 1:53 PM on Wednesday 26 Nov 2014 (Local Time) from KMHE Reporting Station
Clear Clear  
Wind Chill:   Ceiling: Unl
Heat Index: 16°   Visibility: 10mi
Dew Point:   Wind: 18mph
Humidity: 71%   Direction: 340°NNW
Pressure: 30.36"   Gusts: 25mph
Location:  44.01°N, 97.92°W
Report Text: KMHE 261953Z AUTO 34016G22KT 10SM CLR M09/M13 A3036 RMK AO2 PK WND 31026/1919 SLP299 T10891133
Loading
Personal Weather Stations






























Interactive Weather Map New forecast layout! Learn more

10-Day Weather Forecast

Advertisements
Track Severe Weather on mobile